createdAt,value
2017-04-29T00:00:42.048Z,6.04
2017-04-29T00:03:10.320Z,5.62
2017-04-29T00:05:39.380Z,6.48
2017-04-29T00:08:07.667Z,8.32
2017-04-29T00:10:35.954Z,6.24
2017-04-29T00:13:04.248Z,9.08
2017-04-29T00:15:32.589Z,6.38
2017-04-29T00:18:00.875Z,7.16
2017-04-29T00:20:29.144Z,5.76
2017-04-29T00:22:57.431Z,7.26
2017-04-29T00:25:25.704Z,5.34
2017-04-29T00:27:53.991Z,7.68
2017-04-29T00:30:22.268Z,7.08
2017-04-29T00:32:50.567Z,6.26
2017-04-29T00:35:19.608Z,6.56
2017-04-29T00:37:47.912Z,6.58
2017-04-29T00:40:16.278Z,7.92
2017-04-29T00:42:44.563Z,7.42
2017-04-29T00:45:12.855Z,6.50
2017-04-29T00:47:42.377Z,6.40
2017-04-29T00:50:11.407Z,9.10
2017-04-29T00:52:40.304Z,7.28
2017-04-29T00:55:08.623Z,6.50
2017-04-29T00:57:37.671Z,6.66
2017-04-29T01:00:05.941Z,8.64
2017-04-29T01:02:34.808Z,7.32
2017-04-29T01:05:03.105Z,8.16
2017-04-29T01:07:31.399Z,6.50
2017-04-29T01:09:59.671Z,8.06
2017-04-29T01:12:28.043Z,8.12
2017-04-29T01:14:56.420Z,6.12
2017-04-29T01:17:24.712Z,6.36
2017-04-29T01:19:52.984Z,6.66
2017-04-29T01:22:21.271Z,6.08
2017-04-29T01:24:49.552Z,6.50
2017-04-29T01:27:17.861Z,7.26
2017-04-29T01:29:46.593Z,6.92
2017-04-29T01:32:14.903Z,8.88
2017-04-29T01:34:43.175Z,7.04
2017-04-29T01:37:11.524Z,6.66
2017-04-29T01:39:39.813Z,7.82
2017-04-29T01:42:08.088Z,6.52
2017-04-29T01:44:36.376Z,7.48
2017-04-29T01:47:04.724Z,6.32
2017-04-29T01:49:33.095Z,8.26
2017-04-29T01:52:01.364Z,7.52
2017-04-29T01:54:29.647Z,6.30
2017-04-29T01:56:57.936Z,6.44
2017-04-29T01:59:26.208Z,6.92
2017-04-29T02:01:54.584Z,8.96
2017-04-29T02:04:22.888Z,7.06
2017-04-29T02:06:51.179Z,7.26
2017-04-29T02:09:20.336Z,7.44
2017-04-29T02:11:48.646Z,11.96
2017-04-29T02:14:16.985Z,7.84
2017-04-29T02:16:45.264Z,9.18
2017-04-29T02:19:13.556Z,9.56
2017-04-29T02:21:41.827Z,8.88
2017-04-29T02:24:10.116Z,9.38
2017-04-29T02:26:38.400Z,9.62
2017-04-29T02:29:06.717Z,10.24
2017-04-29T02:31:35.017Z,10.00
2017-04-29T02:34:03.331Z,8.60
2017-04-29T02:36:32.384Z,8.54
2017-04-29T02:39:00.764Z,9.22
2017-04-29T02:41:29.048Z,10.28
2017-04-29T02:43:57.351Z,8.90
2017-04-29T02:46:25.624Z,7.52
2017-04-29T02:48:53.906Z,9.86
2017-04-29T02:51:22.943Z,8.38
2017-04-29T02:53:51.217Z,8.44
2017-04-29T02:56:19.502Z,7.28
2017-04-29T02:58:47.772Z,9.14
2017-04-29T03:01:16.168Z,7.82
2017-04-29T03:03:44.452Z,9.34
2017-04-29T03:06:12.747Z,9.02
2017-04-29T03:08:41.096Z,7.86
2017-04-29T03:11:09.696Z,8.78
2017-04-29T03:13:38.059Z,10.48
2017-04-29T03:16:06.432Z,9.12
2017-04-29T03:18:34.723Z,8.64
2017-04-29T03:21:03.088Z,8.80
2017-04-29T03:23:31.396Z,10.16
2017-04-29T03:25:59.745Z,8.38
2017-04-29T03:28:28.044Z,8.84
2017-04-29T03:30:56.316Z,9.82
2017-04-29T03:33:24.631Z,9.78
2017-04-29T03:35:52.919Z,8.70
2017-04-29T03:38:21.199Z,9.10
2017-04-29T03:40:49.496Z,10.60
2017-04-29T03:43:17.773Z,9.30
2017-04-29T03:45:46.087Z,9.34
2017-04-29T03:48:14.359Z,8.64
2017-04-29T03:50:42.636Z,9.22
2017-04-29T03:53:10.931Z,8.76
2017-04-29T03:55:39.947Z,9.30
2017-04-29T03:58:08.242Z,8.90
2017-04-29T04:00:36.524Z,9.52
2017-04-29T04:03:04.823Z,10.32
2017-04-29T04:05:33.168Z,9.42
2017-04-29T04:08:01.460Z,9.84
2017-04-29T04:10:29.743Z,10.48
2017-04-29T04:12:58.052Z,12.38
2017-04-29T04:15:27.071Z,8.70
2017-04-29T04:17:55.369Z,10.30
2017-04-29T04:20:23.647Z,10.28
2017-04-29T04:22:51.947Z,10.90
2017-04-29T04:25:20.225Z,13.48
2017-04-29T04:27:48.560Z,9.80
2017-04-29T04:30:16.857Z,14.24
2017-04-29T04:32:45.232Z,11.08
2017-04-29T04:35:13.528Z,9.78
2017-04-29T04:37:41.811Z,10.44
2017-04-29T04:40:10.166Z,11.76
2017-04-29T04:42:38.444Z,9.62
2017-04-29T04:45:06.755Z,9.90
2017-04-29T04:47:35.772Z,9.76
2017-04-29T04:50:04.056Z,11.36
2017-04-29T04:52:32.347Z,9.16
2017-04-29T04:55:00.637Z,9.60
2017-04-29T04:57:28.932Z,9.22
2017-04-29T04:59:57.213Z,10.92
2017-04-29T05:02:25.516Z,10.00
2017-04-29T05:04:54.528Z,9.10
2017-04-29T05:07:22.827Z,11.82
2017-04-29T05:09:51.215Z,13.48
2017-04-29T05:12:19.589Z,9.30
2017-04-29T05:14:47.859Z,8.98
2017-04-29T05:17:16.246Z,10.76
2017-04-29T05:19:44.535Z,8.86
2017-04-29T05:22:12.807Z,8.38
2017-04-29T05:24:41.172Z,10.86
2017-04-29T05:27:09.460Z,9.68
2017-04-29T05:29:37.758Z,9.36
2017-04-29T05:32:06.033Z,9.04
2017-04-29T05:34:34.346Z,11.82
2017-04-29T05:37:02.620Z,9.02
2017-04-29T05:39:30.895Z,8.12
2017-04-29T05:41:59.811Z,8.84
2017-04-29T05:44:28.140Z,10.48
2017-04-29T05:46:56.447Z,8.26
2017-04-29T05:49:24.720Z,6.84
2017-04-29T05:51:53.328Z,9.62
2017-04-29T05:54:21.709Z,8.58
2017-04-29T05:56:49.980Z,7.08
2017-04-29T05:59:18.276Z,8.16
2017-04-29T06:01:46.555Z,9.98
2017-04-29T06:04:14.918Z,7.42
2017-04-29T06:06:43.200Z,8.20
2017-04-29T06:09:11.508Z,8.36
2017-04-29T06:11:40.561Z,11.42
2017-04-29T06:14:08.857Z,11.56
2017-04-29T06:16:37.220Z,10.58
2017-04-29T06:19:05.516Z,7.76
2017-04-29T06:21:34.052Z,7.44
2017-04-29T06:24:02.328Z,7.12
2017-04-29T06:26:30.619Z,9.48
2017-04-29T06:28:58.888Z,8.00
2017-04-29T06:31:27.176Z,6.52
2017-04-29T06:33:56.035Z,7.84
2017-04-29T06:36:24.341Z,7.50
2017-04-29T06:38:52.611Z,7.82
2017-04-29T06:41:20.895Z,8.22
2017-04-29T06:43:49.188Z,11.46
2017-04-29T06:46:17.544Z,7.62
2017-04-29T06:48:45.867Z,8.36
2017-04-29T06:51:14.888Z,5.98
2017-04-29T06:53:43.181Z,6.72
2017-04-29T06:56:11.465Z,5.22
2017-04-29T06:58:39.753Z,7.54
2017-04-29T07:01:08.028Z,5.78
2017-04-29T07:03:36.332Z,5.98
2017-04-29T07:06:04.603Z,5.60
2017-04-29T07:08:32.944Z,7.22
2017-04-29T07:11:01.236Z,4.98
2017-04-29T07:13:29.599Z,5.38
2017-04-29T07:15:57.987Z,5.88
2017-04-29T07:18:26.266Z,6.24
2017-04-29T07:20:54.579Z,5.50
2017-04-29T07:23:23.596Z,4.88
2017-04-29T07:25:51.895Z,6.48
2017-04-29T07:28:20.231Z,8.68
2017-04-29T07:30:49.272Z,5.20
2017-04-29T07:33:17.564Z,5.84
2017-04-29T07:35:45.843Z,7.14
2017-04-29T07:38:14.145Z,5.06
2017-04-29T07:40:43.887Z,6.06
2017-04-29T07:43:12.180Z,5.70
2017-04-29T07:45:40.466Z,5.50
2017-04-29T07:48:08.759Z,5.30
2017-04-29T07:50:37.124Z,5.42
2017-04-29T07:53:05.501Z,5.94
2017-04-29T07:55:33.875Z,5.50
2017-04-29T07:58:02.169Z,4.52
2017-04-29T08:00:30.443Z,5.52
2017-04-29T08:02:58.739Z,7.50
2017-04-29T08:05:27.772Z,6.82
2017-04-29T08:07:56.086Z,6.26
2017-04-29T08:10:24.379Z,5.42
2017-04-29T08:12:52.722Z,4.48
2017-04-29T08:15:21.096Z,8.64
2017-04-29T08:17:49.376Z,5.72
2017-04-29T08:20:17.667Z,5.88
2017-04-29T08:22:45.943Z,5.84
2017-04-29T08:25:14.240Z,5.82
2017-04-29T08:27:42.520Z,7.68
2017-04-29T08:30:10.799Z,5.28
2017-04-29T08:32:39.839Z,6.70
2017-04-29T08:35:08.118Z,5.68
2017-04-29T08:37:36.438Z,4.48
2017-04-29T08:40:04.711Z,6.08
2017-04-29T08:42:32.999Z,5.16
2017-04-29T08:45:02.016Z,5.62
2017-04-29T08:47:30.319Z,6.78
2017-04-29T08:49:58.596Z,4.28
2017-04-29T08:52:26.872Z,4.90
2017-04-29T08:54:55.247Z,6.46
2017-04-29T08:57:23.528Z,5.98
2017-04-29T08:59:51.827Z,7.02
2017-04-29T09:02:20.185Z,4.98
2017-04-29T09:04:48.555Z,6.30
2017-04-29T09:07:16.832Z,6.94
2017-04-29T09:09:45.213Z,5.20
2017-04-29T09:12:13.487Z,4.16
2017-04-29T09:14:41.799Z,5.86
2017-04-29T09:17:10.824Z,6.98
2017-04-29T09:19:39.103Z,5.66
2017-04-29T09:22:07.408Z,6.08
2017-04-29T09:24:35.695Z,4.92
2017-04-29T09:27:04.491Z,5.30
2017-04-29T09:29:32.770Z,4.20
2017-04-29T09:32:01.133Z,4.60
2017-04-29T09:34:29.511Z,4.30
2017-04-29T09:36:57.787Z,6.36
2017-04-29T09:39:26.575Z,7.40
2017-04-29T09:41:54.852Z,5.88
2017-04-29T09:44:23.817Z,7.06
2017-04-29T09:46:52.096Z,7.66
2017-04-29T09:49:20.487Z,4.38
2017-04-29T09:51:48.764Z,5.42
2017-04-29T09:54:17.150Z,4.66
2017-04-29T09:56:46.136Z,4.72
2017-04-29T09:59:14.448Z,4.90
2017-04-29T10:01:42.726Z,3.94
2017-04-29T10:04:11.003Z,7.40
2017-04-29T10:06:39.295Z,4.50
2017-04-29T10:09:08.312Z,7.24
2017-04-29T10:11:36.634Z,4.82
2017-04-29T10:14:04.984Z,4.16
2017-04-29T10:16:33.685Z,3.78
2017-04-29T10:19:02.326Z,4.56
2017-04-29T10:21:30.637Z,4.08
2017-04-29T10:23:58.919Z,6.78
2017-04-29T10:26:27.192Z,4.40
2017-04-29T10:28:55.564Z,4.40
2017-04-29T10:31:23.939Z,5.20
2017-04-29T10:33:52.227Z,5.16
2017-04-29T10:36:21.236Z,5.74
2017-04-29T10:38:49.536Z,9.86
2017-04-29T10:41:18.581Z,5.04
2017-04-29T10:43:46.876Z,4.68
2017-04-29T10:46:15.151Z,7.74
2017-04-29T10:48:43.446Z,5.12
2017-04-29T10:51:11.743Z,4.94
2017-04-29T10:53:40.760Z,4.38
2017-04-29T10:56:09.054Z,4.90
2017-04-29T10:58:37.328Z,4.82
2017-04-29T11:01:06.112Z,4.36
2017-04-29T11:03:34.396Z,4.52
2017-04-29T11:06:02.684Z,5.00
2017-04-29T11:08:30.975Z,4.68
2017-04-29T11:10:59.256Z,4.42
2017-04-29T11:13:27.556Z,5.76
2017-04-29T11:15:55.832Z,4.58
2017-04-29T11:18:24.129Z,5.14
2017-04-29T11:20:52.424Z,5.02
2017-04-29T11:23:21.422Z,6.48
2017-04-29T11:25:49.706Z,6.38
2017-04-29T11:28:18.072Z,5.42
2017-04-29T11:30:46.360Z,4.86
2017-04-29T11:33:14.832Z,5.44
2017-04-29T11:35:43.467Z,6.94
2017-04-29T11:38:11.792Z,5.20
2017-04-29T11:40:40.164Z,6.18
2017-04-29T11:43:09.155Z,4.50
2017-04-29T11:45:37.532Z,5.32
2017-04-29T11:48:05.812Z,5.10
2017-04-29T11:50:34.083Z,5.60
2017-04-29T11:53:02.372Z,6.68
2017-04-29T11:55:30.751Z,5.08
2017-04-29T11:57:59.125Z,7.24
2017-04-29T12:00:27.408Z,4.80
2017-04-29T12:02:55.774Z,6.48
2017-04-29T12:05:24.061Z,5.40
2017-04-29T12:07:52.384Z,6.20
2017-04-29T12:10:20.659Z,5.42
2017-04-29T12:12:49.795Z,4.62
2017-04-29T12:15:18.503Z,5.80
2017-04-29T12:17:46.783Z,4.70
2017-04-29T12:20:15.087Z,5.36
2017-04-29T12:22:44.108Z,4.04
2017-04-29T12:25:12.423Z,5.08
2017-04-29T12:27:40.703Z,3.98
2017-04-29T12:30:08.980Z,3.70
2017-04-29T12:32:37.280Z,3.50
2017-04-29T12:35:06.295Z,4.06
2017-04-29T12:37:34.599Z,4.26
2017-04-29T12:40:02.876Z,6.08
2017-04-29T12:42:31.172Z,8.38
2017-04-29T12:45:00.115Z,5.40
2017-04-29T12:47:28.424Z,9.00
2017-04-29T12:49:56.704Z,4.58
2017-04-29T12:52:25.000Z,4.34
2017-04-29T12:54:53.356Z,3.94
2017-04-29T12:57:21.636Z,3.10
2017-04-29T12:59:49.936Z,3.52
2017-04-29T13:02:18.217Z,2.58
2017-04-29T13:04:47.251Z,3.72
2017-04-29T13:07:15.527Z,4.02
2017-04-29T13:09:43.843Z,4.76
2017-04-29T13:12:12.203Z,4.42
2017-04-29T13:14:40.583Z,6.76
2017-04-29T13:17:09.852Z,4.22
2017-04-29T13:19:38.128Z,3.54
2017-04-29T13:22:06.432Z,3.12
2017-04-29T13:24:34.708Z,6.10
2017-04-29T13:27:03.004Z,4.70
2017-04-29T13:29:31.290Z,4.66
2017-04-29T13:31:59.568Z,4.46
2017-04-29T13:34:27.864Z,5.30
2017-04-29T13:36:56.885Z,4.28
2017-04-29T13:39:25.184Z,3.60
2017-04-29T13:41:53.460Z,3.54
2017-04-29T13:44:21.751Z,4.80
2017-04-29T13:46:50.114Z,2.66
2017-04-29T13:49:18.412Z,4.66
2017-04-29T13:51:46.688Z,5.06
2017-04-29T13:54:14.967Z,3.10
2017-04-29T13:56:43.311Z,4.60
2017-04-29T13:59:11.598Z,3.96
2017-04-29T14:01:39.902Z,3.32
2017-04-29T14:04:08.246Z,4.68
2017-04-29T14:06:36.768Z,49.38
2017-04-29T14:09:05.815Z,20.64
2017-04-29T14:11:34.092Z,6.30
2017-04-29T14:14:02.387Z,5.10
2017-04-29T14:16:31.572Z,4.70
2017-04-29T14:18:59.864Z,4.72
2017-04-29T14:21:28.143Z,4.70
2017-04-29T14:23:56.447Z,3.88
2017-04-29T14:26:25.487Z,2.90
2017-04-29T14:28:53.765Z,3.00
2017-04-29T14:31:22.058Z,4.38
2017-04-29T14:33:50.337Z,3.18
2017-04-29T14:36:18.692Z,2.98
2017-04-29T14:38:46.975Z,4.02
2017-04-29T14:41:15.348Z,3.32
2017-04-29T14:43:44.143Z,2.90
2017-04-29T14:46:12.432Z,2.52
2017-04-29T14:48:40.997Z,2.58
2017-04-29T14:51:10.103Z,2.50
2017-04-29T14:53:38.430Z,3.04
2017-04-29T14:56:08.070Z,2.50
2017-04-29T14:58:36.364Z,2.82
2017-04-29T15:01:04.734Z,2.20
2017-04-29T15:03:33.028Z,2.34
2017-04-29T15:06:01.386Z,2.20
2017-04-29T15:08:29.806Z,2.20
2017-04-29T15:10:58.835Z,2.82
2017-04-29T15:13:27.143Z,3.42
2017-04-29T15:15:55.427Z,3.10
2017-04-29T15:18:23.704Z,2.50
2017-04-29T15:20:52.003Z,2.08
2017-04-29T15:23:21.024Z,2.36
2017-04-29T15:25:49.315Z,2.64
2017-04-29T15:28:17.592Z,2.82
2017-04-29T15:30:45.981Z,3.90
2017-04-29T15:33:14.365Z,5.22
2017-04-29T15:35:42.638Z,5.72
2017-04-29T15:38:10.936Z,4.98
2017-04-29T15:40:39.216Z,2.80
2017-04-29T15:43:07.568Z,2.92
2017-04-29T15:45:35.844Z,4.98
2017-04-29T15:48:04.139Z,5.30
2017-04-29T15:50:32.416Z,3.24
2017-04-29T15:53:00.715Z,2.66
2017-04-29T15:55:29.737Z,3.18
2017-04-29T15:57:58.400Z,3.10
2017-04-29T16:00:27.440Z,3.28
2017-04-29T16:02:55.722Z,3.04
2017-04-29T16:05:24.026Z,3.30
2017-04-29T16:07:53.064Z,2.74
2017-04-29T16:10:21.360Z,3.38
2017-04-29T16:12:49.735Z,3.08
2017-04-29T16:15:18.051Z,3.20
2017-04-29T16:17:46.395Z,3.10
2017-04-29T16:20:14.772Z,2.62
2017-04-29T16:22:43.068Z,3.26
2017-04-29T16:25:11.421Z,3.52
2017-04-29T16:27:39.731Z,3.40
2017-04-29T16:30:08.007Z,4.32
2017-04-29T16:32:36.356Z,3.08
2017-04-29T16:35:04.729Z,5.38
2017-04-29T16:37:33.023Z,3.82
2017-04-29T16:40:01.296Z,3.78
2017-04-29T16:42:29.587Z,2.74
2017-04-29T16:44:57.881Z,4.12
2017-04-29T16:47:26.909Z,3.50
2017-04-29T16:49:56.129Z,3.36
2017-04-29T16:52:24.814Z,2.98
2017-04-29T16:54:53.193Z,3.80
2017-04-29T16:57:21.475Z,3.02
2017-04-29T16:59:49.860Z,3.40
2017-04-29T17:02:18.223Z,2.86
2017-04-29T17:04:46.500Z,2.98
2017-04-29T17:07:14.879Z,3.00
2017-04-29T17:09:43.160Z,3.86
2017-04-29T17:12:11.451Z,4.92
2017-04-29T17:14:40.499Z,2.82
2017-04-29T17:17:08.800Z,2.72
2017-04-29T17:19:37.084Z,3.22
2017-04-29T17:22:05.587Z,2.98
2017-04-29T17:24:33.938Z,3.12
2017-04-29T17:27:02.217Z,2.92
2017-04-29T17:29:30.788Z,2.98
2017-04-29T17:31:59.064Z,2.64
2017-04-29T17:34:27.372Z,2.80
2017-04-29T17:36:55.828Z,3.32
2017-04-29T17:39:24.201Z,2.40
2017-04-29T17:41:52.583Z,2.90
2017-04-29T17:44:20.865Z,2.60
2017-04-29T17:46:49.163Z,4.28
2017-04-29T17:49:17.441Z,3.44
2017-04-29T17:51:45.741Z,3.16
2017-04-29T17:54:14.756Z,3.66
2017-04-29T17:56:43.035Z,2.90
2017-04-29T17:59:11.333Z,2.90
2017-04-29T18:01:39.705Z,3.42
2017-04-29T18:04:08.309Z,3.74
2017-04-29T18:06:36.587Z,3.82
2017-04-29T18:09:04.879Z,3.24
2017-04-29T18:11:33.931Z,2.82
2017-04-29T18:14:02.228Z,3.18
2017-04-29T18:16:30.503Z,3.36
2017-04-29T18:18:58.813Z,4.56
2017-04-29T18:21:27.091Z,2.90
2017-04-29T18:23:56.116Z,3.38
2017-04-29T18:26:24.415Z,3.80
2017-04-29T18:28:52.691Z,3.98
2017-04-29T18:31:20.987Z,3.94
2017-04-29T18:33:49.268Z,3.42
2017-04-29T18:36:18.337Z,3.60
2017-04-29T18:38:46.975Z,3.50
2017-04-29T18:41:15.251Z,2.88
2017-04-29T18:43:43.552Z,3.02
2017-04-29T18:46:11.828Z,3.46
2017-04-29T18:48:40.223Z,3.26
2017-04-29T18:51:08.505Z,3.20
2017-04-29T18:53:36.804Z,4.04
2017-04-29T18:56:05.088Z,3.92
2017-04-29T18:58:34.126Z,5.98
2017-04-29T19:01:02.400Z,6.10
2017-04-29T19:03:30.681Z,7.32
2017-04-29T19:05:58.980Z,7.52
2017-04-29T19:08:27.888Z,6.24
2017-04-29T19:10:56.191Z,5.82
2017-04-29T19:13:25.212Z,8.94
2017-04-29T19:15:53.523Z,7.46
2017-04-29T19:18:21.812Z,6.38
2017-04-29T19:20:50.094Z,7.70
2017-04-29T19:23:19.049Z,6.10
2017-04-29T19:25:47.328Z,5.32
2017-04-29T19:28:15.624Z,5.88
2017-04-29T19:30:43.975Z,5.00
2017-04-29T19:33:12.268Z,5.06
2017-04-29T19:35:40.545Z,5.82
2017-04-29T19:38:08.908Z,5.56
2017-04-29T19:40:37.188Z,4.50
2017-04-29T19:43:05.469Z,5.86
2017-04-29T19:45:33.836Z,4.96
2017-04-29T19:48:02.113Z,5.58
2017-04-29T19:50:30.408Z,5.94
2017-04-29T19:52:58.764Z,5.76
2017-04-29T19:55:27.091Z,5.48
2017-04-29T19:57:56.125Z,5.40
2017-04-29T20:00:24.404Z,5.38
2017-04-29T20:02:52.700Z,6.06
2017-04-29T20:05:20.979Z,5.80
2017-04-29T20:07:49.272Z,6.02
2017-04-29T20:10:17.547Z,6.08
2017-04-29T20:12:45.839Z,6.62
2017-04-29T20:15:14.892Z,5.00
2017-04-29T20:17:43.193Z,5.46
2017-04-29T20:20:11.472Z,5.50
2017-04-29T20:22:39.819Z,5.88
2017-04-29T20:25:08.192Z,4.84
2017-04-29T20:27:36.475Z,4.84
2017-04-29T20:30:05.150Z,7.60
2017-04-29T20:32:33.757Z,5.78
2017-04-29T20:35:02.086Z,4.80
2017-04-29T20:37:30.364Z,5.14
2017-04-29T20:39:58.643Z,4.84
2017-04-29T20:42:27.028Z,6.72
2017-04-29T20:44:55.300Z,4.82
2017-04-29T20:47:23.597Z,5.50
2017-04-29T20:49:51.873Z,5.32
2017-04-29T20:52:20.183Z,5.22
2017-04-29T20:54:48.938Z,5.28
2017-04-29T20:57:17.239Z,5.46
2017-04-29T20:59:45.592Z,5.22
2017-04-29T21:02:13.968Z,5.50
2017-04-29T21:04:42.261Z,6.76
2017-04-29T21:07:10.531Z,6.50
2017-04-29T21:09:38.892Z,5.00
2017-04-29T21:12:07.170Z,5.66
2017-04-29T21:14:35.599Z,5.70
2017-04-29T21:17:04.646Z,5.02
2017-04-29T21:19:32.915Z,4.98
2017-04-29T21:22:01.203Z,6.02
2017-04-29T21:24:29.476Z,5.78
2017-04-29T21:26:57.768Z,5.62
2017-04-29T21:29:26.048Z,5.68
2017-04-29T21:31:54.352Z,4.80
2017-04-29T21:34:23.369Z,4.84
2017-04-29T21:36:51.644Z,4.52
2017-04-29T21:39:19.945Z,5.98
2017-04-29T21:41:48.221Z,5.26
2017-04-29T21:44:16.517Z,4.44
2017-04-29T21:46:44.799Z,3.90
2017-04-29T21:49:13.092Z,5.42
2017-04-29T21:51:42.144Z,4.42
2017-04-29T21:54:10.436Z,4.42
2017-04-29T21:56:38.712Z,5.28
2017-04-29T21:59:07.069Z,5.30
2017-04-29T22:01:35.556Z,6.32
2017-04-29T22:04:03.828Z,5.54
2017-04-29T22:06:32.115Z,7.36
2017-04-29T22:09:00.404Z,5.62
2017-04-29T22:11:28.707Z,5.54
2017-04-29T22:13:57.753Z,5.72
2017-04-29T22:16:26.024Z,5.34
2017-04-29T22:18:54.314Z,4.94
2017-04-29T22:21:22.589Z,5.84
2017-04-29T22:23:51.694Z,4.60
2017-04-29T22:26:19.968Z,5.48
2017-04-29T22:28:48.256Z,5.64
2017-04-29T22:31:16.531Z,6.72
2017-04-29T22:33:44.875Z,5.80
2017-04-29T22:36:13.168Z,5.16
2017-04-29T22:38:41.440Z,6.04
2017-04-29T22:41:09.751Z,5.82
2017-04-29T22:43:38.769Z,5.92
2017-04-29T22:46:07.159Z,5.00
2017-04-29T22:48:35.440Z,5.82
2017-04-29T22:51:03.840Z,5.04
2017-04-29T22:53:32.116Z,4.30
2017-04-29T22:56:00.389Z,4.92
2017-04-29T22:58:28.764Z,4.74
2017-04-29T23:00:57.146Z,4.64
2017-04-29T23:03:25.908Z,5.48
2017-04-29T23:05:54.180Z,4.24
2017-04-29T23:08:22.583Z,4.56
2017-04-29T23:10:50.855Z,4.70
2017-04-29T23:13:19.154Z,4.48
2017-04-29T23:15:47.430Z,5.30
2017-04-29T23:18:15.747Z,4.10
2017-04-29T23:20:44.777Z,3.62
2017-04-29T23:23:13.053Z,4.04
2017-04-29T23:25:41.348Z,4.02
2017-04-29T23:28:09.625Z,3.88
2017-04-29T23:30:37.984Z,4.52
2017-04-29T23:33:06.362Z,4.48
2017-04-29T23:35:34.737Z,4.72
2017-04-29T23:38:03.024Z,3.92
2017-04-29T23:40:31.295Z,4.10
2017-04-29T23:42:59.669Z,4.78
2017-04-29T23:45:27.939Z,5.10
2017-04-29T23:47:56.233Z,9.54
2017-04-29T23:50:24.568Z,6.62
2017-04-29T23:52:52.912Z,7.32
2017-04-29T23:55:22.776Z,9.82
2017-04-29T23:57:51.076Z,15.20
